Meteo Giornale » Osservazioni meteo Stati Uniti (USA) » Winter Haven's Gilbert
ore: 16:53 - Osservazioni Meteo Winter Haven's Gilbert
Lat. 28° 3' N Lon. 81° 45' W Alt. 44 metri s.l.m.
26 °C
Pioggia
Temp. 24 Ore
24 °C
34 °C
Est
13 Km/h
Dew point 24 °C
Umidità 88 %
Visibilità 11 Km
Il sole sorge alle ore 07:05
Il sole tramonta alle ore 19:49
| Data e Ora | Cielo e Fenomeni | T °C | DP °C | Um. % | Pres. hPa | Vis. km | Vento km/h | |
|---|---|---|---|---|---|---|---|---|
| Oggi h: 16:53 | Pioggia | 26 | 24 | 88 | 1017 | 11 | E 13 | |
| Oggi h: 16:38 | Temporale nelle vicinanze | 26 | 24 | 88 | 1017 | 10 | E 14.8 | |
| Oggi h: 16:26 | Coperto | 26 | 24 | 88 | 1017 | 10 | E 18.5 | |
| Oggi h: 16:14 | Temporale nelle vicinanze Pioggia | 26 | 24 | 88 | 1017 | 13 | E 20.3 | |
| Oggi h: 16:06 | Temporale nelle vicinanze Pioggia | 25 | 24 | 94 | 1017 | 2 | E 22.2 | |
| Oggi h: 15:53 | Pioggia Foschia | 25 | 24 | 94 | 1017 | 3 | E 35.2 | |
| Oggi h: 15:48 | Pioggia Foschia | 26 | 25 | 94 | 1016 | 3 | E 37 | |
| Oggi h: 15:41 | Pioggia | 26 | 25 | 94 | 1017 | 11 | E 29.6 | |
| Oggi h: 15:31 | Pioggia | 28 | 24 | 78 | 1017 | 10 | E/SE 25.9 | |
| Oggi h: 15:28 | Pioggia | 28 | 24 | 78 | 1017 | 10 | E/SE 22.2 | |
| Oggi h: 15:19 | Temporale nelle vicinanze | 33 | 24 | 59 | 1017 | 10 | E 33.3 | |
| Oggi h: 14:53 | Poco Nuvoloso | 34 | 24 | 56 | 1016 | 10 | N/NE 11.1 | |
| Oggi h: 13:53 | Poco Nuvoloso | 33 | 22 | 52 | 1017 | 10 | N 0 | |
| Oggi h: 12:53 | Poco Nuvoloso | 32 | 23 | 59 | 1018 | 10 | N 5.5 | |
| Oggi h: 11:53 | Poco Nuvoloso | 31 | 24 | 66 | 1018 | 10 | N 5.5 | |
| Oggi h: 10:53 | Sereno | 31 | 24 | 66 | 1018 | 10 | N 5.5 | |
| Oggi h: 09:53 | Sereno | 29 | 25 | 79 | 1018 | 10 | N 5.5 | |
| Oggi h: 08:53 | Poco Nuvoloso | 27 | 25 | 88 | 1018 | 10 | N/NE 7.4 | |
| Oggi h: 07:53 | Sereno | 26 | 25 | 94 | 1018 | 10 | N 7.4 | |
| Oggi h: 06:53 | Sereno | 25 | 24 | 94 | 1017 | 10 | N 5.5 | |
| Oggi h: 05:53 | Sereno | 24 | 24 | 100 | 1016 | 10 | NE 7.4 | |
| Oggi h: 04:53 | Sereno | 24 | 24 | 100 | 1016 | 10 | N 5.5 | |
| Oggi h: 03:53 | Sereno | 25 | 24 | 94 | 1016 | 10 | N 5.5 | |
| Oggi h: 02:53 | Sereno | 25 | 24 | 94 | 1017 | 10 | E/NE 7.4 | |
| Oggi h: 01:53 | Sereno | 26 | 24 | 88 | 1017 | 10 | N 5.5 | |
| Oggi h: 00:53 | Poco Nuvoloso | 26 | 24 | 88 | 1018 | 10 | E 7.4 | |
| Oggi h: 00:51 | Nuvoloso | 26 | 24 | 88 | 1018 | 10 | E 7.4 | |
| Oggi h: 00:31 | Molto Nuvoloso | 26 | 24 | 88 | 1018 | 10 | N 5.5 | |
| Ieri h: 23:53 | Sereno | 26 | 24 | 88 | 1018 | 10 | N 5.5 | |
| Ieri h: 22:53 | Sereno | 26 | 24 | 88 | 1018 | 10 | N/NE 7.4 | |
| Ieri h: 21:53 | Poco Nuvoloso | 26 | 24 | 88 | 1018 | 10 | N 0 | |
| Ieri h: 21:45 | Nuvoloso | 27 | 24 | 83 | 1018 | 10 | N 0 | |
| Ieri h: 20:53 | Molto Nuvoloso | 27 | 24 | 83 | 1018 | 10 | N 0 | |
| Ieri h: 19:53 | Sereno | 27 | 24 | 83 | 1017 | 10 | N 5.5 | |
| Ieri h: 18:53 | Sereno | 27 | 24 | 83 | 1017 | 10 | N 0 | |
| Ieri h: 17:53 | Sereno | 27 | 24 | 83 | 1017 | 10 | S/SE 7.4 | |



